Boardwalk — ZGAQ7 — position and weather

sailwx.info

Track history (hours):
 
Tides and Currents Weather Stations Pressure Air Temp Water Temp Dewpoint Dewpoint Depression Visibility Wind Speed Wind Dir Waves Ship Positions

Boardwalk

Last reported at 2018-Mar-29 11:54 UTC. Time now 2018-Apr-22 16:33 UTC.
Position N 31°00' W 116°35'.
Warning: this ship's position is 24 days out of date.

Length 50 m; draft 2.7 m.

Type: Pleasure craft. MMSI: 319031900.

Date/timePositionNaut miles runAvg speedWind from/ knotsBaromVisibWave heightAir tempDewpointWater temp
2018-Mar-29 11:54N 31°00' W 116°35'104 9.1
2018-Mar-29 00:22N 32°39' W 117°17'821.5
2018-Mar-29 00:00N 32°45' W 117°22'1122.2
2018-Mar-28 23:30N 32°54' W 117°29'1122.1
2018-Mar-28 23:00N 33°03' W 117°36'2421.7
2018-Mar-28 21:53N 33°24' W 117°53'821.5
2018-Mar-28 21:30N 33°30' W 117°58'1121.1
2018-Mar-28 21:00N 33°38' W 118°07'816.5
2018-Mar-28 20:30N 33°45' W 118°11'0 0.7
2018-Mar-28 20:00N 33°46' W 118°12'0 0.0
2018-Mar-28 19:31N 33°46' W 118°12'0 0.0
2018-Mar-28 19:00N 33°46' W 118°12'0 0.0
2018-Mar-28 18:28N 33°46' W 118°12'0 0.0
2018-Mar-28 18:00N 33°46' W 118°12'0 0.0
2018-Mar-28 17:28N 33°46' W 118°12'0 0.0
2018-Mar-28 17:01N 33°46' W 118°12'0 0.0
2018-Mar-28 16:27N 33°46' W 118°12'0 0.0
2018-Mar-28 15:51N 33°46' W 118°12'0 0.0
2018-Mar-28 15:30N 33°46' W 118°12'0 0.0
2018-Mar-28 14:57N 33°46' W 118°12'0 0.0
2018-Mar-28 14:30N 33°46' W 118°12'0 0.0
2018-Mar-28 14:00N 33°46' W 118°12'0 0.0
2018-Mar-28 02:18N 33°46' W 118°12'0 0.0
2018-Mar-28 02:00N 33°46' W 118°12'0 0.0
2018-Mar-28 01:30N 33°46' W 118°12'0 0.0
2018-Mar-28 01:00N 33°46' W 118°12'0 0.0
2018-Mar-28 00:30N 33°46' W 118°12'0 0.0
2018-Mar-28 00:00N 33°46' W 118°12'0 0.0
2018-Mar-27 23:30N 33°46' W 118°12'0 0.0
2018-Mar-27 23:00N 33°46' W 118°12'0 0.0
2018-Mar-27 22:27N 33°46' W 118°12'0 0.0
2018-Mar-27 22:00N 33°46' W 118°12'0 0.0
2018-Mar-27 21:30N 33°46' W 118°12'0 0.0
2018-Mar-27 21:00N 33°46' W 118°12'0 0.0
2018-Mar-27 20:30N 33°46' W 118°12'0 0.0
2018-Mar-27 20:00N 33°46' W 118°12'0 0.0
2018-Mar-27 19:30N 33°46' W 118°12'0 0.0
2018-Mar-27 19:00N 33°46' W 118°12'0 0.0
2018-Mar-27 18:30N 33°46' W 118°12'0 0.0
2018-Mar-27 18:00N 33°46' W 118°12'3 6.6
2018-Mar-27 17:30N 33°42' W 118°11'714.7
2018-Mar-27 16:59N 33°36' W 118°16'816.6
2018-Mar-27 16:29N 33°39' W 118°26'816.6
2018-Mar-27 16:00N 33°43' W 118°34'816.1
2018-Mar-27 15:30N 33°47' W 118°43'714.8
2018-Mar-27 15:00N 33°50' W 118°51'612.5
2018-Mar-27 14:30N 33°53' W 118°57'612.2
2018-Mar-27 14:00N 33°56' W 119°04'612.3
2018-Mar-27 13:29N 33°59' W 119°10'712.5
2018-Mar-27 12:55N 34°02' W 119°18'512.6
2018-Mar-27 12:30N 34°03' W 119°24'712.5
2018-Mar-27 11:59N 34°05' W 119°32'712.5
2018-Mar-27 11:26N 34°07' W 119°40'512.4
2018-Mar-27 10:59N 34°09' W 119°46'612.5
2018-Mar-27 10:29N 34°10' W 119°54'712.5
2018-Mar-27 09:58N 34°12' W 120°01'612.3
2018-Mar-27 09:30N 34°13' W 120°08'612.1
2018-Mar-27 09:00N 34°15' W 120°15'612.2
2018-Mar-27 08:30N 34°16' W 120°22'612.2
2018-Mar-27 08:00N 34°18' W 120°29'612.4
2018-Mar-27 07:30N 34°20' W 120°36'612.3
2018-Mar-27 07:00N 34°21' W 120°44'714.8
2018-Mar-27 06:30N 34°26' W 120°51'816.3
2018-Mar-27 06:00N 34°32' W 120°57'816.9
2018-Mar-27 05:31N 34°40' W 121°01'917.1
2018-Mar-27 04:59N 34°48' W 121°06'816.9
2018-Mar-27 04:30N 34°55' W 121°11'917.0
2018-Mar-27 03:59N 35°03' W 121°16'816.9
2018-Mar-27 03:30N 35°10' W 121°21'916.9
2018-Mar-27 03:00N 35°17' W 121°26'15916.6
2018-Mar-26 17:26N 37°35' W 123°05'716.7
2018-Mar-26 17:00N 37°41' W 123°09'916.7
2018-Mar-26 16:28N 37°49' W 123°15'816.7
2018-Mar-26 15:58N 37°56' W 123°19'816.6
2018-Mar-26 15:30N 38°03' W 123°23'816.6
2018-Mar-26 15:00N 38°10' W 123°29'816.2
2018-Mar-26 14:31N 38°18' W 123°33'816.2
2018-Mar-26 14:00N 38°25' W 123°38'45415.1
2018-Mar-25 07:56N 45°53' W 125°12'1615.4
2018-Mar-25 06:54N 46°09' W 125°11'12714.7
2018-Mar-24 22:16N 48°16' W 125°01'514.7
2018-Mar-24 21:55N 48°21' W 124°57'614.9
2018-Mar-24 21:30N 48°25' W 124°50'715.2
2018-Mar-24 21:00N 48°28' W 124°40'815.8
2018-Mar-24 20:30N 48°26' W 124°28'817.0
2018-Mar-24 20:01N 48°23' W 124°16'916.9
2018-Mar-24 19:29N 48°20' W 124°04'  
Track history (hours):
 
Tides and Currents Weather Stations Pressure Air Temp Water Temp Dewpoint Dewpoint Depression Visibility Wind Speed Wind Dir Waves Ship Positions

Boardwalk

Last reported at 2018-Mar-29 11:54 UTC. Time now 2018-Apr-22 16:33 UTC.
Position N 31°00' W 116°35'.
Warning: this ship's position is 24 days out of date.

Length 50 m; draft 2.7 m.

Type: Pleasure craft. MMSI: 319031900.

Date/timePositionNaut miles runAvg speedWind from/ knotsBaromVisibWave heightAir tempDewpointWater temp
2018-Mar-29 11:54N 31°00' W 116°35'104 9.1
2018-Mar-29 00:22N 32°39' W 117°17'821.5
2018-Mar-29 00:00N 32°45' W 117°22'1122.2
2018-Mar-28 23:30N 32°54' W 117°29'1122.1
2018-Mar-28 23:00N 33°03' W 117°36'2421.7
2018-Mar-28 21:53N 33°24' W 117°53'821.5
2018-Mar-28 21:30N 33°30' W 117°58'1121.1
2018-Mar-28 21:00N 33°38' W 118°07'816.5
2018-Mar-28 20:30N 33°45' W 118°11'0 0.7
2018-Mar-28 20:00N 33°46' W 118°12'0 0.0
2018-Mar-28 19:31N 33°46' W 118°12'0 0.0
2018-Mar-28 19:00N 33°46' W 118°12'0 0.0
2018-Mar-28 18:28N 33°46' W 118°12'0 0.0
2018-Mar-28 18:00N 33°46' W 118°12'0 0.0
2018-Mar-28 17:28N 33°46' W 118°12'0 0.0
2018-Mar-28 17:01N 33°46' W 118°12'0 0.0
2018-Mar-28 16:27N 33°46' W 118°12'0 0.0
2018-Mar-28 15:51N 33°46' W 118°12'0 0.0
2018-Mar-28 15:30N 33°46' W 118°12'0 0.0
2018-Mar-28 14:57N 33°46' W 118°12'0 0.0
2018-Mar-28 14:30N 33°46' W 118°12'0 0.0
2018-Mar-28 14:00N 33°46' W 118°12'0 0.0
2018-Mar-28 02:18N 33°46' W 118°12'0 0.0
2018-Mar-28 02:00N 33°46' W 118°12'0 0.0
2018-Mar-28 01:30N 33°46' W 118°12'0 0.0
2018-Mar-28 01:00N 33°46' W 118°12'0 0.0
2018-Mar-28 00:30N 33°46' W 118°12'0 0.0
2018-Mar-28 00:00N 33°46' W 118°12'0 0.0
2018-Mar-27 23:30N 33°46' W 118°12'0 0.0
2018-Mar-27 23:00N 33°46' W 118°12'0 0.0
2018-Mar-27 22:27N 33°46' W 118°12'0 0.0
2018-Mar-27 22:00N 33°46' W 118°12'0 0.0
2018-Mar-27 21:30N 33°46' W 118°12'0 0.0
2018-Mar-27 21:00N 33°46' W 118°12'0 0.0
2018-Mar-27 20:30N 33°46' W 118°12'0 0.0
2018-Mar-27 20:00N 33°46' W 118°12'0 0.0
2018-Mar-27 19:30N 33°46' W 118°12'0 0.0
2018-Mar-27 19:00N 33°46' W 118°12'0 0.0
2018-Mar-27 18:30N 33°46' W 118°12'0 0.0
2018-Mar-27 18:00N 33°46' W 118°12'3 6.6
2018-Mar-27 17:30N 33°42' W 118°11'714.7
2018-Mar-27 16:59N 33°36' W 118°16'816.6
2018-Mar-27 16:29N 33°39' W 118°26'816.6
2018-Mar-27 16:00N 33°43' W 118°34'816.1
2018-Mar-27 15:30N 33°47' W 118°43'714.8
2018-Mar-27 15:00N 33°50' W 118°51'612.5
2018-Mar-27 14:30N 33°53' W 118°57'612.2
2018-Mar-27 14:00N 33°56' W 119°04'612.3
2018-Mar-27 13:29N 33°59' W 119°10'712.5
2018-Mar-27 12:55N 34°02' W 119°18'512.6
2018-Mar-27 12:30N 34°03' W 119°24'712.5
2018-Mar-27 11:59N 34°05' W 119°32'712.5
2018-Mar-27 11:26N 34°07' W 119°40'512.4
2018-Mar-27 10:59N 34°09' W 119°46'612.5
2018-Mar-27 10:29N 34°10' W 119°54'712.5
2018-Mar-27 09:58N 34°12' W 120°01'612.3
2018-Mar-27 09:30N 34°13' W 120°08'612.1
2018-Mar-27 09:00N 34°15' W 120°15'612.2
2018-Mar-27 08:30N 34°16' W 120°22'612.2
2018-Mar-27 08:00N 34°18' W 120°29'612.4
2018-Mar-27 07:30N 34°20' W 120°36'612.3
2018-Mar-27 07:00N 34°21' W 120°44'714.8
2018-Mar-27 06:30N 34°26' W 120°51'816.3
2018-Mar-27 06:00N 34°32' W 120°57'816.9
2018-Mar-27 05:31N 34°40' W 121°01'917.1
2018-Mar-27 04:59N 34°48' W 121°06'816.9
2018-Mar-27 04:30N 34°55' W 121°11'917.0
2018-Mar-27 03:59N 35°03' W 121°16'816.9
2018-Mar-27 03:30N 35°10' W 121°21'916.9
2018-Mar-27 03:00N 35°17' W 121°26'15916.6
2018-Mar-26 17:26N 37°35' W 123°05'716.7
2018-Mar-26 17:00N 37°41' W 123°09'916.7
2018-Mar-26 16:28N 37°49' W 123°15'816.7
2018-Mar-26 15:58N 37°56' W 123°19'816.6
2018-Mar-26 15:30N 38°03' W 123°23'816.6
2018-Mar-26 15:00N 38°10' W 123°29'816.2
2018-Mar-26 14:31N 38°18' W 123°33'816.2
2018-Mar-26 14:00N 38°25' W 123°38'45415.1
2018-Mar-25 07:56N 45°53' W 125°12'1615.4
2018-Mar-25 06:54N 46°09' W 125°11'12714.7
2018-Mar-24 22:16N 48°16' W 125°01'514.7
2018-Mar-24 21:55N 48°21' W 124°57'614.9
2018-Mar-24 21:30N 48°25' W 124°50'715.2
2018-Mar-24 21:00N 48°28' W 124°40'815.8
2018-Mar-24 20:30N 48°26' W 124°28'817.0
2018-Mar-24 20:01N 48°23' W 124°16'916.9
2018-Mar-24 19:29N 48°20' W 124°04'  

Dump ship's entire track history